Time;durP1;ratioP1;P1;durP2;ratioP2;P2;SDS_P1;SDS_P2;PMS_P1;PMS_P2;Temp;Humidity;BMP_temperature;BMP_pressure;BME280_temperature;BME280_humidity;BME280_pressure;Samples;Min_cycle;Max_cycle;Signal;HPM_P1;HPM_P2
2021/03/13 00:01:51;;;;;;;25.63;6.57;;;7.30;99.90;;;;;;4141019;28;20034;-77
2021/03/13 00:03:52;;;;;;;23.15;6.03;;;7.30;99.90;;;;;;4134900;28;20431;-77
2021/03/13 00:05:53;;;;;;;24.60;6.60;;;7.20;99.90;;;;;;4133622;28;20033;-78
2021/03/13 00:07:54;;;;;;;19.98;5.25;;;7.20;99.90;;;;;;4142632;28;20029;-77
2021/03/13 00:09:54;;;;;;;22.55;6.45;;;7.10;99.90;;;;;;4135223;28;20647;-77
2021/03/13 00:11:55;;;;;;;20.27;6.75;;;7.10;99.90;;;;;;4134603;28;20061;-77
2021/03/13 00:13:56;;;;;;;21.48;6.60;;;7.00;99.90;;;;;;4131197;28;20398;-76
2021/03/13 00:15:57;;;;;;;21.30;5.68;;;6.90;99.90;;;;;;4137237;28;20053;-77
2021/03/13 00:17:59;;;;;;;18.00;6.30;;;6.90;99.90;;;;;;4137312;28;20169;-77
2021/03/13 00:20:00;;;;;;;24.73;6.50;;;6.90;99.90;;;;;;4137626;28;20129;-76
2021/03/13 00:22:02;;;;;;;27.98;7.38;;;7.00;99.90;;;;;;4140579;28;20121;-76
2021/03/13 00:24:02;;;;;;;24.52;6.32;;;7.00;99.90;;;;;;4134855;28;20041;-76
2021/03/13 00:26:03;;;;;;;25.00;8.60;;;7.10;99.90;;;;;;4141347;28;20035;-77
2021/03/13 00:28:06;;;;;;;19.90;5.53;;;7.10;99.90;;;;;;4143283;28;20045;-77
2021/03/13 00:30:07;;;;;;;15.33;5.50;;;7.10;99.90;;;;;;4166973;28;20498;-77
2021/03/13 00:32:07;;;;;;;24.05;6.65;;;7.20;99.90;;;;;;4136217;28;20348;-78
2021/03/13 00:34:08;;;;;;;21.67;6.40;;;7.20;99.90;;;;;;4141103;28;20106;-77
2021/03/13 00:36:09;;;;;;;19.13;5.53;;;7.10;99.90;;;;;;4130086;28;20041;-77
2021/03/13 00:38:10;;;;;;;16.60;7.43;;;7.10;99.90;;;;;;4138291;28;20505;-79
2021/03/13 00:40:14;;;;;;;23.70;10.15;;;7.10;99.90;;;;;;4144015;28;20405;-77
2021/03/13 00:42:14;;;;;;;17.52;4.40;;;7.00;99.90;;;;;;4140455;28;20392;-76
2021/03/13 00:44:15;;;;;;;13.45;5.70;;;7.10;99.90;;;;;;4144042;28;20034;-77
2021/03/13 00:46:15;;;;;;;13.73;5.10;;;7.10;99.90;;;;;;4141255;28;20133;-76
2021/03/13 00:48:17;;;;;;;18.63;5.82;;;7.10;99.90;;;;;;4137018;28;20035;-77
2021/03/13 00:50:21;;;;;;;14.18;6.95;;;7.10;99.90;;;;;;4166821;28;20060;-75
2021/03/13 00:52:22;;;;;;;17.83;5.70;;;7.10;99.90;;;;;;4138408;28;20136;-77
2021/03/13 00:54:22;;;;;;;18.38;5.53;;;7.10;99.90;;;;;;4141197;28;20037;-77
2021/03/13 00:56:23;;;;;;;23.75;5.88;;;7.00;99.90;;;;;;4141961;28;20389;-77
2021/03/13 00:58:23;;;;;;;16.02;4.75;;;7.00;99.90;;;;;;4140988;28;20052;-77
2021/03/13 01:00:25;;;;;;;18.15;5.60;;;7.10;99.90;;;;;;4140772;28;20098;-77
2021/03/13 01:02:27;;;;;;;11.82;5.30;;;7.10;99.90;;;;;;4138447;28;20061;-77
2021/03/13 01:04:27;;;;;;;10.35;5.15;;;7.10;99.90;;;;;;4142104;28;20058;-77
2021/03/13 01:06:28;;;;;;;11.65;4.93;;;7.10;99.90;;;;;;4139845;28;20038;-77
2021/03/13 01:08:28;;;;;;;17.17;5.65;;;7.00;99.90;;;;;;4146383;28;20037;-77
2021/03/13 01:10:43;;;;;;;17.83;4.45;;;7.10;99.90;;;;;;4145447;28;20033;-77
2021/03/13 01:12:44;;;;;;;13.07;5.25;;;7.10;99.90;;;;;;4146778;28;20037;-76
2021/03/13 01:14:45;;;;;;;14.88;5.35;;;7.00;99.90;;;;;;4144957;28;20025;-77
2021/03/13 01:16:45;;;;;;;14.85;4.88;;;7.00;99.90;;;;;;4143740;28;20062;-76
2021/03/13 01:18:46;;;;;;;16.48;5.22;;;7.00;99.90;;;;;;4172099;28;20116;-76
2021/03/13 01:20:50;;;;;;;23.52;6.45;;;6.90;99.90;;;;;;4135555;28;20109;-77
2021/03/13 01:22:50;;;;;;;22.20;8.13;;;6.90;99.90;;;;;;4142207;28;20519;-76
2021/03/13 01:24:51;;;;;;;8.35;4.68;;;6.80;99.90;;;;;;4145819;28;20045;-77
2021/03/13 01:26:51;;;;;;;14.70;5.32;;;6.70;99.90;;;;;;4144437;28;20038;-77
2021/03/13 01:28:52;;;;;;;13.02;7.20;;;6.70;99.90;;;;;;4140405;28;20076;-77
2021/03/13 01:30:53;;;;;;;15.50;7.10;;;6.60;99.90;;;;;;4138539;28;20176;-77
2021/03/13 01:32:54;;;;;;;12.30;6.03;;;6.60;99.90;;;;;;4135634;28;20122;-80
2021/03/13 01:34:54;;;;;;;18.60;6.30;;;6.50;99.90;;;;;;4171076;28;20037;-77
2021/03/13 01:36:55;;;;;;;16.77;5.95;;;6.40;99.90;;;;;;4146509;28;20026;-78
2021/03/13 01:38:55;;;;;;;12.70;5.20;;;6.40;99.90;;;;;;4143271;28;20121;-78
2021/03/13 01:40:57;;;;;;;10.38;5.65;;;6.30;99.90;;;;;;4167487;28;20040;-79
2021/03/13 01:42:58;;;;;;;10.65;5.47;;;6.30;99.90;;;;;;4139657;28;20144;-78
2021/03/13 01:44:59;;;;;;;12.45;6.13;;;6.20;99.90;;;;;;4135721;28;20031;-78
2021/03/13 01:47:00;;;;;;;14.10;6.43;;;6.20;99.90;;;;;;4171896;28;20037;-78
2021/03/13 01:49:01;;;;;;;13.07;5.38;;;6.20;99.90;;;;;;4146615;28;20044;-79
2021/03/13 01:51:02;;;;;;;16.60;6.20;;;6.10;99.90;;;;;;4144342;28;20065;-78
2021/03/13 01:53:03;;;;;;;15.85;5.70;;;6.00;99.90;;;;;;4147533;28;20026;-78
2021/03/13 01:55:07;;;;;;;17.25;6.40;;;6.00;99.90;;;;;;4146388;28;20042;-78
2021/03/13 01:57:09;;;;;;;15.60;5.90;;;6.00;99.90;;;;;;4144979;28;20148;-78
2021/03/13 01:59:10;;;;;;;14.48;5.68;;;6.00;99.90;;;;;;4140810;28;20041;-79
2021/03/13 02:01:11;;;;;;;12.98;6.40;;;6.00;99.90;;;;;;4146594;28;20038;-79
2021/03/13 02:03:12;;;;;;;14.13;6.30;;;5.90;99.90;;;;;;4145222;28;20030;-80
2021/03/13 02:05:21;;;;;;;10.52;5.30;;;5.90;99.90;;;;;;4145842;28;20042;-79
2021/03/13 02:07:30;;;;;;;12.00;5.30;;;5.90;99.90;;;;;;4167726;28;20033;-79
2021/03/13 02:09:37;;;;;;;13.25;7.00;;;5.80;99.90;;;;;;4142598;28;20030;-80
2021/03/13 02:11:40;;;;;;;14.73;5.53;;;5.90;99.90;;;;;;4140976;28;20038;-80
2021/03/13 02:14:02;;;;;;;15.60;6.60;;;5.80;99.90;;;;;;4141620;28;20081;-80
2021/03/13 02:16:50;;;;;;;12.60;5.47;;;5.80;99.90;;;;;;4138595;28;20180;-80
2021/03/13 02:19:21;;;;;;;11.88;6.32;;;5.80;99.90;;;;;;4106495;28;20085;-80
2021/03/13 02:21:27;;;;;;;14.45;6.00;;;5.80;99.90;;;;;;4120623;28;20457;-80
2021/03/13 02:23:48;;;;;;;13.93;5.75;;;5.70;99.90;;;;;;4131673;28;20129;-80
2021/03/13 02:26:07;;;;;;;6.90;4.65;;;5.70;99.90;;;;;;4143703;28;20125;-79
2021/03/13 02:28:23;;;;;;;11.70;5.70;;;5.80;99.90;;;;;;4142300;28;20030;-80
2021/03/13 02:30:26;;;;;;;14.18;5.55;;;5.80;99.90;;;;;;4134005;28;20161;-80
2021/03/13 02:32:46;;;;;;;12.32;6.10;;;5.70;99.90;;;;;;4143448;28;20040;-80
2021/03/13 02:34:50;;;;;;;13.95;6.47;;;5.80;99.90;;;;;;4139854;28;20145;-80
2021/03/13 02:36:52;;;;;;;12.48;7.30;;;5.80;99.90;;;;;;4142967;28;20044;-81
2021/03/13 02:38:55;;;;;;;10.77;6.72;;;5.80;99.90;;;;;;4143542;28;20104;-81
2021/03/13 02:41:05;;;;;;;10.05;5.72;;;5.80;99.90;;;;;;4144336;28;20038;-81
2021/03/13 02:43:09;;;;;;;10.50;4.97;;;5.70;99.90;;;;;;4147554;28;20081;-81
2021/03/13 02:45:11;;;;;;;9.98;5.82;;;5.80;99.90;;;;;;4136779;28;20118;-81
2021/03/13 02:47:13;;;;;;;15.50;7.30;;;5.80;99.90;;;;;;4161061;28;20043;-80
2021/03/13 02:49:14;;;;;;;12.80;6.57;;;5.70;99.90;;;;;;4144160;28;20068;-81
2021/03/13 02:51:18;;;;;;;9.68;5.50;;;5.70;99.90;;;;;;4146543;28;20034;-81
2021/03/13 02:53:19;;;;;;;;;;;5.80;99.90;;;;;;4143639;28;20030;-81
2021/03/13 02:55:21;;;;;;;13.65;6.18;;;5.80;99.90;;;;;;4141702;28;19941;-81
2021/03/13 02:57:23;;;;;;;10.23;5.68;;;5.70;99.90;;;;;;4146771;28;20099;-81
2021/03/13 02:59:24;;;;;;;9.57;5.88;;;5.80;99.90;;;;;;4146318;28;20084;-80
2021/03/13 03:01:28;;;;;;;8.43;5.68;;;5.70;99.90;;;;;;4145603;28;20030;-80
2021/03/13 03:03:30;;;;;;;18.10;6.55;;;5.70;99.90;;;;;;4147613;28;20077;-81
2021/03/13 03:05:32;;;;;;;11.45;5.35;;;5.70;99.90;;;;;;4147454;28;20380;-81
2021/03/13 03:07:33;;;;;;;18.17;6.03;;;5.70;99.90;;;;;;4143304;28;20030;-80
2021/03/13 03:09:34;;;;;;;13.20;6.10;;;5.70;99.90;;;;;;4169463;28;20087;-81
2021/03/13 03:11:39;;;;;;;14.32;6.68;;;5.80;99.90;;;;;;4146239;28;20097;-81
2021/03/13 03:13:40;;;;;;;12.15;5.82;;;5.70;99.90;;;;;;4137748;28;20033;-81
2021/03/13 03:15:41;;;;;;;9.68;6.13;;;5.80;99.90;;;;;;4146746;28;20037;-80
2021/03/13 03:17:43;;;;;;;9.13;5.15;;;5.80;99.90;;;;;;4150026;28;20033;-80
2021/03/13 03:19:45;;;;;;;11.68;5.80;;;5.70;99.90;;;;;;4135395;28;20147;-81
2021/03/13 03:21:47;;;;;;;14.70;5.93;;;5.80;99.90;;;;;;4155604;28;20034;-80
2021/03/13 03:23:48;;;;;;;13.48;6.32;;;5.80;99.90;;;;;;4162097;28;20040;-81
2021/03/13 03:25:56;;;;;;;11.65;6.57;;;5.80;99.90;;;;;;4145835;28;20038;-81
2021/03/13 03:27:57;;;;;;;15.00;6.38;;;5.80;99.90;;;;;;4144418;28;20048;-80
2021/03/13 03:29:58;;;;;;;12.55;6.35;;;5.80;99.90;;;;;;4148387;28;20061;-81
2021/03/13 03:31:58;;;;;;;10.65;5.72;;;5.80;99.90;;;;;;4140986;28;20073;-81
2021/03/13 03:33:59;;;;;;;10.63;5.75;;;5.90;99.90;;;;;;4136244;28;20429;-82
2021/03/13 03:36:00;;;;;;;9.65;5.47;;;5.90;99.90;;;;;;4145527;28;20116;-81
2021/03/13 03:38:02;;;;;;;12.48;6.43;;;5.90;99.90;;;;;;4142919;28;20044;-80
2021/03/13 03:40:05;;;;;;;11.20;5.40;;;5.90;99.90;;;;;;4177550;28;20047;-81
2021/03/13 03:42:09;;;;;;;9.77;5.00;;;5.90;99.90;;;;;;4146043;28;20030;-81
2021/03/13 03:44:17;;;;;;;14.88;5.85;;;5.90;99.90;;;;;;4149393;28;20026;-81
2021/03/13 03:46:18;;;;;;;15.15;5.97;;;6.00;99.90;;;;;;4141489;28;20034;-82
2021/03/13 03:48:22;;;;;;;9.10;5.22;;;6.00;99.90;;;;;;4172591;28;20087;-80
2021/03/13 03:50:23;;;;;;;10.65;5.75;;;6.00;99.90;;;;;;4143099;28;20056;-80
2021/03/13 03:52:24;;;;;;;12.88;5.10;;;6.00;99.90;;;;;;4141681;28;20437;-81
2021/03/13 03:54:26;;;;;;;13.32;5.05;;;6.00;99.90;;;;;;4136609;28;20033;-82
2021/03/13 03:56:27;;;;;;;13.23;4.85;;;6.00;99.90;;;;;;4142322;28;20030;-81
2021/03/13 03:58:36;;;;;;;15.63;5.78;;;6.00;99.90;;;;;;4137429;28;20030;-81
2021/03/13 04:00:40;;;;;;;11.35;4.57;;;6.00;99.90;;;;;;4133310;28;20484;-80
2021/03/13 04:02:43;;;;;;;10.45;5.20;;;6.10;99.90;;;;;;4169464;28;20021;-80
2021/03/13 04:04:44;;;;;;;7.80;4.53;;;6.20;99.90;;;;;;4137909;28;20084;-81
2021/03/13 04:06:47;;;;;;;11.55;5.38;;;6.20;99.90;;;;;;4140207;28;20026;-81
2021/03/13 04:08:51;;;;;;;13.05;4.80;;;6.20;99.90;;;;;;4140836;28;20416;-82
2021/03/13 04:10:53;;;;;;;9.45;4.72;;;6.10;99.90;;;;;;4128880;28;20495;-82
2021/03/13 04:12:57;;;;;;;15.43;5.93;;;6.20;99.90;;;;;;4134833;28;20086;-81
2021/03/13 04:14:59;;;;;;;8.02;3.63;;;6.20;99.90;;;;;;4140163;28;20034;-80
2021/03/13 04:17:00;;;;;;;13.60;4.63;;;6.20;99.90;;;;;;4143420;28;20571;-81
2021/03/13 04:19:02;;;;;;;7.75;4.47;;;6.20;99.90;;;;;;4141524;28;20485;-80
2021/03/13 04:21:03;;;;;;;13.15;5.68;;;6.20;99.90;;;;;;4140838;28;20104;-80
2021/03/13 04:23:04;;;;;;;10.43;6.00;;;6.20;99.90;;;;;;4135596;28;20045;-80
2021/03/13 04:25:06;;;;;;;10.95;5.07;;;6.20;99.90;;;;;;4143196;28;20149;-79
2021/03/13 04:27:07;;;;;;;9.63;4.80;;;6.20;99.90;;;;;;4142297;28;20038;-80
2021/03/13 04:29:08;;;;;;;8.25;3.67;;;6.20;99.90;;;;;;4144011;28;20364;-81
2021/03/13 04:31:10;;;;;;;8.18;3.75;;;6.20;99.90;;;;;;4143176;28;20096;-82
2021/03/13 04:33:12;;;;;;;11.85;4.93;;;6.30;99.90;;;;;;4140743;28;20558;-79
2021/03/13 04:35:13;;;;;;;11.27;4.30;;;6.30;99.90;;;;;;4137458;28;20508;-79
2021/03/13 04:37:14;;;;;;;12.25;5.00;;;6.30;99.90;;;;;;4143483;28;20038;-79
2021/03/13 04:39:17;;;;;;;9.77;5.22;;;6.30;99.90;;;;;;4143566;28;20038;-79
2021/03/13 04:41:18;;;;;;;7.80;4.53;;;6.30;99.90;;;;;;4140491;28;20519;-79
2021/03/13 04:43:21;;;;;;;6.57;4.20;;;6.40;99.90;;;;;;4142800;28;20022;-78
2021/03/13 04:45:23;;;;;;;6.97;4.13;;;6.40;99.90;;;;;;4145799;28;20038;-79
2021/03/13 04:47:24;;;;;;;5.95;3.63;;;6.40;99.90;;;;;;4132323;28;20039;-80
2021/03/13 04:49:25;;;;;;;7.43;4.32;;;6.40;99.90;;;;;;4169870;28;20712;-82
2021/03/13 04:51:26;;;;;;;11.20;4.93;;;6.40;99.90;;;;;;4144720;28;20086;-79
2021/03/13 04:53:27;;;;;;;7.20;4.75;;;6.50;99.90;;;;;;4142690;28;20118;-79
2021/03/13 04:55:28;;;;;;;7.10;4.53;;;6.50;99.90;;;;;;4140232;28;20026;-80
2021/03/13 04:57:28;;;;;;;9.07;4.22;;;6.60;99.90;;;;;;4137398;28;20054;-80
2021/03/13 04:59:29;;;;;;;10.38;4.07;;;6.60;99.90;;;;;;4137673;28;20513;-80
2021/03/13 05:01:30;;;;;;;6.57;4.32;;;6.60;99.90;;;;;;4135472;28;20026;-80
2021/03/13 05:03:31;;;;;;;5.28;3.53;;;6.60;99.90;;;;;;4143534;28;20385;-79
2021/03/13 05:05:33;;;;;;;9.50;4.25;;;6.60;99.90;;;;;;4144442;28;20064;-80
2021/03/13 05:07:34;;;;;;;10.38;4.18;;;6.70;99.90;;;;;;4138980;28;20227;-80
2021/03/13 05:09:35;;;;;;;10.18;5.20;;;6.70;99.90;;;;;;4146826;28;20029;-80
2021/03/13 05:11:36;;;;;;;11.93;4.28;;;6.70;99.90;;;;;;4140429;28;20038;-80
2021/03/13 05:13:36;;;;;;;7.07;5.00;;;6.70;99.90;;;;;;4138002;28;20022;-82
2021/03/13 05:15:37;;;;;;;10.48;4.30;;;6.60;99.90;;;;;;4148712;28;20377;-82
2021/03/13 05:17:38;;;;;;;9.10;5.30;;;6.60;99.90;;;;;;4143712;28;20091;-81
2021/03/13 05:19:40;;;;;;;8.68;4.10;;;6.60;99.90;;;;;;4143084;28;20576;-79
2021/03/13 05:21:40;;;;;;;8.45;4.53;;;6.60;99.90;;;;;;4143507;28;20485;-80
2021/03/13 05:23:41;;;;;;;11.02;4.30;;;6.70;99.90;;;;;;4144475;28;20045;-80
2021/03/13 05:25:43;;;;;;;4.40;3.67;;;6.70;99.90;;;;;;4142703;28;20097;-80
2021/03/13 05:27:45;;;;;;;12.02;4.10;;;6.70;99.90;;;;;;4145643;28;20054;-81
2021/03/13 05:29:45;;;;;;;8.65;4.45;;;6.70;99.90;;;;;;4140678;28;20037;-81
2021/03/13 05:31:47;;;;;;;8.02;4.68;;;6.60;99.90;;;;;;4136922;28;20129;-81
2021/03/13 05:33:50;;;;;;;6.55;3.72;;;6.70;99.90;;;;;;4141924;28;20034;-81
2021/03/13 05:35:50;;;;;;;7.00;3.58;;;6.70;99.90;;;;;;4137509;28;20040;-84
2021/03/13 05:37:51;;;;;;;11.88;4.30;;;6.70;99.90;;;;;;4145392;28;20169;-80
2021/03/13 05:39:51;;;;;;;7.40;5.10;;;6.80;99.90;;;;;;4157305;28;20064;-81
2021/03/13 05:41:53;;;;;;;10.65;4.38;;;6.80;99.90;;;;;;4138346;28;20037;-80
2021/03/13 05:43:56;;;;;;;10.15;5.40;;;6.80;99.90;;;;;;4142881;28;20062;-81
2021/03/13 05:46:00;;;;;;;12.88;3.92;;;6.80;99.90;;;;;;4141202;28;20136;-81
2021/03/13 05:48:01;;;;;;;11.35;4.38;;;6.80;99.90;;;;;;4137238;28;20037;-82
2021/03/13 05:50:11;;;;;;;7.68;3.38;;;6.80;99.90;;;;;;4144336;28;20124;-81
2021/03/13 05:52:12;;;;;;;5.60;3.63;;;6.80;99.90;;;;;;4142443;28;20045;-81
2021/03/13 05:54:15;;;;;;;8.05;2.80;;;6.80;99.90;;;;;;4142684;28;20052;-82
2021/03/13 05:56:17;;;;;;;2.83;2.45;;;7.00;99.90;;;;;;4140465;28;20059;-80
2021/03/13 05:58:18;;;;;;;3.95;2.97;;;6.90;99.90;;;;;;4144579;28;20030;-80
2021/03/13 06:00:20;;;;;;;5.72;3.25;;;6.90;99.90;;;;;;4151872;28;20534;-79
2021/03/13 06:02:21;;;;;;;3.47;2.80;;;6.80;99.90;;;;;;4142535;28;20038;-79
2021/03/13 06:04:21;;;;;;;4.25;2.67;;;6.80;99.90;;;;;;4143886;28;20128;-81
2021/03/13 06:06:24;;;;;;;6.57;2.60;;;6.70;99.90;;;;;;4174935;28;20448;-79
2021/03/13 06:08:26;;;;;;;4.32;2.40;;;6.60;99.90;;;;;;4142518;28;20528;-79
2021/03/13 06:10:26;;;;;;;6.90;2.40;;;6.50;99.90;;;;;;4143329;28;20160;-80
2021/03/13 06:12:27;;;;;;;5.88;2.90;;;6.40;99.90;;;;;;4141407;28;20117;-79
2021/03/13 06:14:28;;;;;;;5.15;2.85;;;6.30;99.90;;;;;;4140739;28;20478;-80
2021/03/13 06:16:31;;;;;;;2.78;2.25;;;6.10;99.90;;;;;;4137314;28;20150;-79
2021/03/13 06:18:59;;;;;;;;;;;6.00;99.90;;;;;;4141968;28;20025;-80
2021/03/13 06:20:59;;;;;;;3.88;2.50;;;6.00;99.90;;;;;;4141331;28;19917;-80
2021/03/13 06:23:07;;;;;;;5.70;2.28;;;6.10;99.90;;;;;;4160178;28;20067;-79
2021/03/13 06:25:10;;;;;;;2.97;2.22;;;6.10;99.90;;;;;;4139221;28;20034;-79
2021/03/13 06:27:16;;;;;;;;;;;6.10;99.90;;;;;;4166681;28;20026;-79
2021/03/13 06:29:16;;;;;;;8.27;2.28;;;6.20;99.90;;;;;;4144022;28;19917;-79
2021/03/13 06:31:28;;;;;;;3.85;2.40;;;6.20;99.90;;;;;;4142516;28;20122;-80
2021/03/13 06:33:33;;;;;;;2.88;2.10;;;6.20;99.90;;;;;;4138716;28;20481;-79
2021/03/13 06:35:38;;;;;;;4.35;2.38;;;6.20;99.90;;;;;;4143922;28;20523;-80
2021/03/13 06:37:38;;;;;;;3.20;2.40;;;6.20;99.90;;;;;;4136212;28;20042;-80
2021/03/13 06:39:39;;;;;;;5.57;1.98;;;6.10;99.90;;;;;;4144728;28;20045;-80
2021/03/13 06:41:40;;;;;;;2.50;2.10;;;6.10;99.90;;;;;;4145468;28;20400;-80
2021/03/13 06:43:41;;;;;;;6.20;2.10;;;6.00;99.90;;;;;;4143672;28;20030;-80
2021/03/13 06:45:56;;;;;;;3.20;2.78;;;6.10;99.90;;;;;;4143824;28;20037;-79
2021/03/13 06:47:56;;;;;;;3.78;2.40;;;6.10;99.90;;;;;;4137795;28;20050;-79
2021/03/13 06:50:19;;;;;;;2.60;2.40;;;6.00;99.90;;;;;;4137618;28;20498;-79
2021/03/13 06:52:20;;;;;;;3.88;2.33;;;6.10;99.90;;;;;;4143458;28;20511;-79
2021/03/13 06:54:21;;;;;;;5.03;2.60;;;6.20;99.90;;;;;;4142800;28;20034;-80
2021/03/13 06:56:26;;;;;;;5.65;2.20;;;6.30;99.90;;;;;;4138302;28;20105;-79
2021/03/13 06:58:30;;;;;;;3.17;2.38;;;6.30;99.90;;;;;;4141549;28;20445;-79
2021/03/13 07:00:36;;;;;;;6.85;3.22;;;6.20;99.90;;;;;;4143550;28;20026;-79
2021/03/13 07:02:37;;;;;;;6.47;2.90;;;6.30;99.90;;;;;;4146818;28;20048;-79
2021/03/13 07:04:42;;;;;;;6.63;2.95;;;6.20;99.90;;;;;;4143046;28;20034;-80
2021/03/13 07:06:45;;;;;;;5.57;2.72;;;6.20;99.90;;;;;;4145841;28;20085;-79
2021/03/13 07:08:47;;;;;;;3.92;2.65;;;6.30;99.90;;;;;;4142872;28;20121;-81
2021/03/13 07:10:48;;;;;;;5.97;3.13;;;6.30;99.90;;;;;;4141287;28;20038;-79
2021/03/13 07:12:49;;;;;;;5.13;3.88;;;6.30;99.90;;;;;;4145799;28;20057;-80
2021/03/13 07:14:50;;;;;;;6.82;3.20;;;6.40;99.90;;;;;;4143384;28;20117;-80
2021/03/13 07:16:52;;;;;;;11.05;2.97;;;6.50;99.90;;;;;;4141135;28;20133;-80
2021/03/13 07:18:59;;;;;;;6.50;2.70;;;6.50;99.90;;;;;;4145772;28;20030;-80
2021/03/13 07:21:00;;;;;;;7.22;3.90;;;6.50;99.90;;;;;;4147666;28;20045;-80
2021/03/13 07:23:03;;;;;;;8.85;3.03;;;6.60;99.90;;;;;;4144384;28;20030;-79
2021/03/13 07:25:05;;;;;;;9.38;3.58;;;6.50;99.90;;;;;;4142517;28;20057;-79
2021/03/13 07:27:12;;;;;;;10.68;3.47;;;6.60;99.90;;;;;;4144162;28;21381;-80
2021/03/13 07:29:15;;;;;;;5.88;3.70;;;6.70;99.90;;;;;;4142435;28;20096;-80
2021/03/13 07:31:19;;;;;;;9.30;3.38;;;6.70;99.90;;;;;;4171910;28;20041;-79
2021/03/13 07:33:21;;;;;;;22.65;5.03;;;6.70;99.90;;;;;;4141801;28;20525;-79
2021/03/13 07:35:25;;;;;;;10.10;3.42;;;6.80;99.90;;;;;;4141578;28;20037;-80
2021/03/13 07:37:27;;;;;;;9.00;4.15;;;6.80;99.90;;;;;;4142316;28;21215;-79
2021/03/13 07:39:33;;;;;;;14.07;4.03;;;6.80;99.90;;;;;;4141255;28;20042;-79
2021/03/13 07:41:37;;;;;;;7.88;3.03;;;6.90;99.90;;;;;;4141781;28;20186;-79
2021/03/13 07:43:42;;;;;;;13.73;3.67;;;6.90;99.90;;;;;;4139669;28;20062;-79
2021/03/13 07:45:46;;;;;;;13.95;4.50;;;6.80;99.90;;;;;;4143173;28;20052;-80
2021/03/13 07:47:48;;;;;;;12.05;4.05;;;6.80;99.90;;;;;;4137184;28;20034;-80
2021/03/13 07:49:49;;;;;;;17.98;5.18;;;6.90;99.90;;;;;;4133971;28;20037;-79
2021/03/13 07:51:54;;;;;;;9.10;3.58;;;6.90;99.90;;;;;;4141524;28;20123;-79
2021/03/13 07:53:55;;;;;;;12.07;3.30;;;7.00;99.90;;;;;;4142358;28;20589;-80
2021/03/13 07:55:56;;;;;;;12.48;4.57;;;7.20;99.90;;;;;;4144508;28;20040;-80
2021/03/13 07:57:58;;;;;;;16.48;4.07;;;7.50;99.90;;;;;;4142295;28;20050;-80
2021/03/13 07:59:59;;;;;;;10.65;3.92;;;7.50;99.90;;;;;;4141451;28;20397;-79
2021/03/13 08:02:00;;;;;;;20.77;5.28;;;7.40;99.90;;;;;;4168255;28;20132;-80
2021/03/13 08:04:01;;;;;;;12.30;4.05;;;7.10;99.90;;;;;;4143185;28;20037;-79
2021/03/13 08:06:11;;;;;;;11.60;4.57;;;7.00;99.90;;;;;;4141855;28;20561;-79
2021/03/13 08:08:13;;;;;;;14.70;4.68;;;7.10;99.90;;;;;;4139685;28;20026;-79
2021/03/13 08:10:40;;;;;;;14.43;5.50;;;7.30;99.90;;;;;;4140384;28;20034;-80
2021/03/13 08:12:42;;;;;;;19.23;6.28;;;7.30;99.90;;;;;;4141505;28;20056;-78
2021/03/13 08:14:43;;;;;;;14.77;4.28;;;7.50;99.90;;;;;;4140159;28;20026;-78
2021/03/13 08:16:44;;;;;;;10.40;5.18;;;7.50;99.90;;;;;;4138649;28;20037;-78
2021/03/13 08:18:48;;;;;;;16.85;5.70;;;7.40;99.90;;;;;;4138612;28;20041;-79
2021/03/13 08:20:49;;;;;;;23.73;5.45;;;7.40;99.90;;;;;;4167673;28;20380;-79
2021/03/13 08:23:15;;;;;;;17.45;4.95;;;7.40;99.90;;;;;;4141877;28;20030;-78
2021/03/13 08:25:27;;;;;;;17.40;5.28;;;7.50;99.90;;;;;;4139983;28;20029;-79
2021/03/13 08:27:33;;;;;;;17.48;5.00;;;7.50;99.90;;;;;;4137553;28;20031;-79
2021/03/13 08:29:49;;;;;;;15.35;5.10;;;7.60;99.90;;;;;;4167479;28;20400;-79
2021/03/13 08:31:50;;;;;;;14.13;4.78;;;7.70;99.90;;;;;;4141100;28;20161;-79
2021/03/13 08:33:53;;;;;;;18.60;5.57;;;7.70;99.90;;;;;;4132690;28;20033;-80
2021/03/13 08:35:54;;;;;;;19.85;5.43;;;7.60;99.90;;;;;;4136792;28;20105;-82
2021/03/13 08:37:55;;;;;;;18.33;5.03;;;7.50;99.90;;;;;;4172608;28;20033;-80
2021/03/13 08:40:20;;;;;;;14.65;4.28;;;7.50;99.90;;;;;;4138092;28;20571;-78
2021/03/13 08:42:33;;;;;;;7.45;3.55;;;7.40;99.90;;;;;;4151097;28;20831;-79
2021/03/13 08:44:37;;;;;;;18.23;5.38;;;7.40;99.90;;;;;;4136711;28;20489;-79
2021/03/13 08:47:03;;;;;;;18.23;7.15;;;7.60;99.90;;;;;;4132630;28;20482;-79
2021/03/13 08:49:04;;;;;;;14.13;4.03;;;7.70;99.90;;;;;;4139150;28;20164;-79
2021/03/13 08:51:16;;;;;;;14.70;4.72;;;7.90;99.90;;;;;;4137084;28;20049;-79
2021/03/13 08:53:34;;;;;;;18.73;4.65;;;8.00;99.90;;;;;;4138355;28;20041;-79
2021/03/13 08:55:35;;;;;;;13.55;3.70;;;8.10;99.90;;;;;;4139508;28;20049;-79
2021/03/13 08:57:42;;;;;;;12.93;5.00;;;8.30;99.90;;;;;;4141084;28;20022;-79
2021/03/13 08:59:59;;;;;;;14.65;5.05;;;8.50;99.90;;;;;;4138874;28;20030;-80
2021/03/13 09:02:10;;;;;;;21.73;5.88;;;8.20;99.90;;;;;;4141414;28;20030;-80
2021/03/13 09:04:11;;;;;;;12.93;4.35;;;8.10;99.90;;;;;;4133266;28;20065;-80
2021/03/13 09:06:12;;;;;;;19.80;5.65;;;8.00;99.90;;;;;;4141346;28;20362;-79
2021/03/13 09:08:19;;;;;;;18.75;5.78;;;7.90;99.90;;;;;;4141962;28;20041;-80
2021/03/13 09:10:21;;;;;;;16.50;4.45;;;7.80;99.90;;;;;;4135020;28;20121;-80
2021/03/13 09:12:25;;;;;;;15.10;3.75;;;7.70;99.90;;;;;;4162259;28;20048;-80
2021/03/13 09:14:27;;;;;;;24.45;5.43;;;7.60;99.90;;;;;;4137813;28;20057;-80
2021/03/13 09:16:34;;;;;;;19.52;5.28;;;7.60;99.90;;;;;;4137958;28;20037;-79
2021/03/13 09:18:34;;;;;;;16.15;4.10;;;7.60;99.90;;;;;;4136077;28;20041;-80
2021/03/13 09:20:40;;;;;;;17.65;5.93;;;7.50;99.90;;;;;;4137419;28;20026;-80
2021/03/13 09:22:43;;;;;;;22.45;5.70;;;7.60;99.90;;;;;;4137857;28;21805;-80
2021/03/13 09:24:50;;;;;;;;;;;7.70;99.90;;;;;;4166206;28;20045;-79
2021/03/13 09:26:59;;;;;;;27.42;6.25;;;7.90;99.90;;;;;;4139125;28;19913;-80
2021/03/13 09:29:00;;;;;;;23.02;6.20;;;8.00;99.90;;;;;;4152987;28;20046;-80
2021/03/13 09:31:00;;;;;;;19.60;6.53;;;8.00;99.90;;;;;;4143623;28;20481;-80
2021/03/13 09:33:02;;;;;;;27.27;6.45;;;8.00;99.90;;;;;;4141951;28;20117;-78
2021/03/13 09:35:03;;;;;;;23.80;5.93;;;7.80;99.90;;;;;;4169999;28;20030;-79
2021/03/13 09:37:30;;;;;;;23.10;5.95;;;7.70;99.90;;;;;;4141116;28;20468;-79
2021/03/13 09:39:30;;;;;;;29.15;7.15;;;7.50;99.90;;;;;;4133571;28;20038;-81
2021/03/13 09:41:31;;;;;;;32.63;9.23;;;7.30;99.90;;;;;;4145656;28;20125;-82
2021/03/13 09:43:39;;;;;;;35.20;10.93;;;6.90;99.90;;;;;;4136772;28;20031;-79
2021/03/13 09:45:40;;;;;;;24.80;8.25;;;6.70;99.90;;;;;;4151178;28;20048;-79
2021/03/13 09:47:43;;;;;;;18.42;5.82;;;6.70;99.90;;;;;;4140079;28;20054;-80
2021/03/13 09:49:45;;;;;;;;;;;6.80;99.90;;;;;;4140673;28;20101;-79
2021/03/13 09:51:50;;;;;;;25.77;9.48;;;6.90;99.90;;;;;;4173453;28;19935;-80
2021/03/13 09:53:50;;;;;;;25.77;8.20;;;7.20;99.90;;;;;;4141647;28;20098;-79
2021/03/13 09:55:52;;;;;;;25.77;6.90;;;7.20;99.90;;;;;;4136960;28;20042;-79
2021/03/13 09:57:58;;;;;;;33.47;10.15;;;7.20;99.90;;;;;;4143826;28;20034;-80
2021/03/13 10:00:04;;;;;;;30.73;8.63;;;7.10;99.90;;;;;;4143381;28;20048;-80
2021/03/13 10:02:05;;;;;;;26.50;8.00;;;7.00;99.90;;;;;;4157977;28;20061;-79
2021/03/13 10:04:06;;;;;;;24.73;7.38;;;6.90;99.90;;;;;;4173150;28;20068;-79
2021/03/13 10:06:06;;;;;;;27.50;7.68;;;6.90;99.90;;;;;;4143693;28;20046;-83
2021/03/13 10:08:13;;;;;;;30.75;8.40;;;7.00;99.90;;;;;;4142574;28;20069;-76
2021/03/13 10:10:18;;;;;;;18.83;8.18;;;7.20;99.90;;;;;;4143561;28;20493;-77
2021/03/13 10:12:34;;;;;;;29.35;8.02;;;7.40;99.90;;;;;;4143200;28;20030;-77
2021/03/13 10:14:39;;;;;;;21.48;6.60;;;7.50;99.90;;;;;;4138015;28;20062;-78
2021/03/13 10:16:40;;;;;;;24.70;6.45;;;8.10;99.90;;;;;;4143208;28;20486;-77
2021/03/13 10:18:42;;;;;;;23.45;6.65;;;8.10;99.90;;;;;;4143867;28;20034;-77
2021/03/13 10:20:45;;;;;;;28.70;6.83;;;8.10;99.90;;;;;;4143650;28;20116;-79
2021/03/13 10:22:45;;;;;;;30.08;7.32;;;8.00;99.90;;;;;;4143755;28;20041;-78
2021/03/13 10:24:55;;;;;;;17.77;6.57;;;8.00;99.90;;;;;;4141779;28;20048;-78
2021/03/13 10:27:05;;;;;;;19.73;5.40;;;8.00;99.90;;;;;;4143773;28;20085;-79
2021/03/13 10:29:08;;;;;;;18.88;6.38;;;8.20;99.90;;;;;;4142182;28;20030;-76
2021/03/13 10:31:19;;;;;;;;;;;8.30;99.90;;;;;;4145043;28;20041;-77
2021/03/13 10:33:30;;;;;;;15.73;4.47;;;8.40;99.90;;;;;;4145044;28;19963;-79
2021/03/13 10:35:33;;;;;;;18.08;5.88;;;8.30;99.90;;;;;;4143945;28;20058;-76
2021/03/13 10:37:42;;;;;;;24.98;6.18;;;8.30;99.90;;;;;;4137838;28;20498;-77
2021/03/13 10:39:48;;;;;;;28.08;10.00;;;8.40;99.90;;;;;;4136562;28;20486;-77
2021/03/13 10:41:53;;;;;;;23.58;7.45;;;8.60;99.90;;;;;;4162837;28;20055;-78
2021/03/13 10:43:56;;;;;;;33.40;7.47;;;8.70;99.90;;;;;;4146081;28;20034;-77
2021/03/13 10:45:57;;;;;;;29.07;8.70;;;8.60;99.90;;;;;;4144801;28;20065;-77
2021/03/13 10:48:04;;;;;;;23.13;5.85;;;8.70;99.90;;;;;;4138825;28;20343;-79